Time;durP1;ratioP1;P1;durP2;ratioP2;P2;SDS_P1;SDS_P2;PMS_P1;PMS_P2;Temp;Humidity;BMP_temperature;BMP_pressure;BME280_temperature;BME280_humidity;BME280_pressure;Samples;Min_cycle;Max_cycle;Signal;HPM_P1;HPM_P2
2023/09/25 00:00:31;;;;;;;5.32;3.13;;;;;;;;;;5092867;28;20018;-67
2023/09/25 00:02:59;;;;;;;3.78;3.00;;;;;;;;;;5092889;28;20366;-67
2023/09/25 00:05:26;;;;;;;9.35;3.88;;;;;;;;;;5092971;28;20031;-67
2023/09/25 00:07:52;;;;;;;5.55;3.45;;;;;;;;;;5092759;28;20027;-67
2023/09/25 00:10:18;;;;;;;5.88;3.30;;;;;;;;;;5092757;28;20489;-67
2023/09/25 00:12:45;;;;;;;5.72;3.60;;;;;;;;;;5092681;28;20032;-67
2023/09/25 00:15:11;;;;;;;5.85;3.53;;;;;;;;;;5092464;28;20432;-68
2023/09/25 00:17:38;;;;;;;7.65;3.58;;;;;;;;;;5092619;28;20065;-67
2023/09/25 00:20:04;;;;;;;6.78;3.83;;;;;;;;;;5092671;28;20376;-67
2023/09/25 00:22:31;;;;;;;5.63;3.30;;;;;;;;;;5092603;28;20024;-67
2023/09/25 00:24:58;;;;;;;4.65;2.78;;;;;;;;;;5092681;28;20384;-67
2023/09/25 00:27:26;;;;;;;4.55;3.08;;;;;;;;;;5092733;28;20028;-68
2023/09/25 00:29:52;;;;;;;5.40;3.40;;;;;;;;;;5092146;28;20491;-67
2023/09/25 00:32:19;;;;;;;5.07;3.00;;;;;;;;;;5092523;28;20030;-67
2023/09/25 00:34:45;;;;;;;5.65;3.20;;;;;;;;;;5092590;28;20026;-67
2023/09/25 00:37:12;;;;;;;4.93;3.13;;;;;;;;;;5092465;28;20472;-67
2023/09/25 00:39:38;;;;;;;7.07;3.50;;;;;;;;;;5092609;28;20361;-67
2023/09/25 00:42:05;;;;;;;4.28;3.03;;;;;;;;;;5092466;28;20020;-67
2023/09/25 00:44:31;;;;;;;6.97;3.30;;;;;;;;;;5092387;28;20050;-67
2023/09/25 00:46:58;;;;;;;6.05;3.28;;;;;;;;;;5092505;28;20380;-67
2023/09/25 00:49:24;;;;;;;5.43;3.33;;;;;;;;;;5092329;28;20481;-67
2023/09/25 00:51:51;;;;;;;4.80;3.40;;;;;;;;;;5092577;28;20027;-67
2023/09/25 00:54:18;;;;;;;5.72;3.50;;;;;;;;;;5092166;28;20036;-67
2023/09/25 00:56:45;;;;;;;5.95;3.22;;;;;;;;;;5092207;28;20388;-67
2023/09/25 00:59:12;;;;;;;4.95;3.78;;;;;;;;;;5092284;28;20028;-67
2023/09/25 01:01:38;;;;;;;5.32;3.67;;;;;;;;;;5092580;28;20028;-67
2023/09/25 01:04:05;;;;;;;5.53;3.40;;;;;;;;;;5092410;28;20024;-67
2023/09/25 01:06:31;;;;;;;4.80;3.17;;;;;;;;;;5092463;28;20034;-67
2023/09/25 01:08:58;;;;;;;4.28;3.00;;;;;;;;;;5092981;28;20019;-67
2023/09/25 01:11:24;;;;;;;6.65;3.42;;;;;;;;;;5096202;28;20024;-67
2023/09/25 01:13:50;;;;;;;5.45;3.72;;;;;;;;;;5095540;28;20026;-67
2023/09/25 01:16:17;;;;;;;7.57;3.70;;;;;;;;;;5096242;28;20016;-67
2023/09/25 01:18:45;;;;;;;4.15;3.38;;;;;;;;;;5095759;28;20046;-68
2023/09/25 01:21:11;;;;;;;4.18;3.00;;;;;;;;;;5096049;28;20020;-67
2023/09/25 01:23:37;;;;;;;6.70;3.25;;;;;;;;;;5077596;28;20039;-67
2023/09/25 01:26:04;;;;;;;5.85;3.60;;;;;;;;;;5095692;28;20026;-67
2023/09/25 01:28:31;;;;;;;6.20;3.28;;;;;;;;;;5095197;28;20072;-67
2023/09/25 01:30:58;;;;;;;6.15;3.35;;;;;;;;;;5094403;28;20400;-67
2023/09/25 01:33:26;;;;;;;4.20;3.33;;;;;;;;;;5095584;28;20017;-67
2023/09/25 01:35:52;;;;;;;4.95;3.20;;;;;;;;;;5095404;28;20035;-68
2023/09/25 01:38:19;;;;;;;6.22;3.10;;;;;;;;;;5095427;28;20488;-67
2023/09/25 01:40:45;;;;;;;5.88;3.42;;;;;;;;;;5095481;28;20035;-67
2023/09/25 01:43:11;;;;;;;5.93;3.33;;;;;;;;;;5095248;28;20035;-67
2023/09/25 01:45:38;;;;;;;6.90;3.38;;;;;;;;;;5095380;28;20020;-67
2023/09/25 01:48:04;;;;;;;5.57;3.28;;;;;;;;;;5095580;28;20088;-67
2023/09/25 01:50:30;;;;;;;6.05;3.25;;;;;;;;;;5095277;28;20483;-67
2023/09/25 01:52:58;;;;;;;6.35;3.78;;;;;;;;;;5094962;28;20040;-67
2023/09/25 01:55:28;;;;;;;8.40;3.20;;;;;;;;;;5095087;28;20550;-67
2023/09/25 01:57:54;;;;;;;6.30;3.00;;;;;;;;;;5094883;28;20039;-67
2023/09/25 02:00:21;;;;;;;4.40;3.25;;;;;;;;;;5095109;28;20380;-67
2023/09/25 02:02:47;;;;;;;8.00;3.58;;;;;;;;;;5076959;28;20020;-67
2023/09/25 02:05:13;;;;;;;5.78;3.20;;;;;;;;;;5095239;28;20031;-67
2023/09/25 02:07:40;;;;;;;5.78;3.50;;;;;;;;;;5094957;28;20020;-67
2023/09/25 02:10:07;;;;;;;6.43;3.67;;;;;;;;;;5094933;28;20024;-67
2023/09/25 02:12:34;;;;;;;4.50;3.03;;;;;;;;;;5094435;28;20476;-67
2023/09/25 02:15:02;;;;;;;4.07;2.83;;;;;;;;;;5094909;28;20027;-66
2023/09/25 02:17:29;;;;;;;4.75;3.50;;;;;;;;;;5094662;28;20058;-67
2023/09/25 02:20:12;;;;;;;6.47;4.18;;;;;;;;;;5094948;28;20020;-67
2023/09/25 02:22:39;;;;;;;5.47;3.50;;;;;;;;;;5094650;28;20024;-67
2023/09/25 02:25:05;;;;;;;4.88;3.53;;;;;;;;;;5094265;28;20031;-67
2023/09/25 02:27:32;;;;;;;5.50;3.30;;;;;;;;;;5094428;28;20034;-67
2023/09/25 02:29:58;;;;;;;4.43;3.22;;;;;;;;;;5093296;28;20031;-67
2023/09/25 02:32:24;;;;;;;6.65;3.47;;;;;;;;;;5094685;28;20027;-67
2023/09/25 02:34:51;;;;;;;5.38;3.20;;;;;;;;;;5094251;28;20515;-67
2023/09/25 02:37:17;;;;;;;5.70;3.90;;;;;;;;;;5094265;28;20032;-67
2023/09/25 02:39:43;;;;;;;5.05;3.10;;;;;;;;;;5094016;28;20028;-67
2023/09/25 02:42:10;;;;;;;5.40;3.63;;;;;;;;;;5094487;28;20034;-67
2023/09/25 02:44:36;;;;;;;7.05;3.45;;;;;;;;;;5094193;28;20028;-67
2023/09/25 02:47:02;;;;;;;5.78;3.47;;;;;;;;;;5076299;28;20032;-67
2023/09/25 02:49:29;;;;;;;6.47;3.60;;;;;;;;;;5094057;28;20028;-67
2023/09/25 02:51:55;;;;;;;6.15;3.25;;;;;;;;;;5094232;28;20016;-67
2023/09/25 02:54:21;;;;;;;5.97;3.70;;;;;;;;;;5093562;28;20109;-67
2023/09/25 02:56:48;;;;;;;6.47;3.28;;;;;;;;;;5094177;28;20024;-67
2023/09/25 02:59:14;;;;;;;6.65;3.45;;;;;;;;;;5093882;28;20028;-67
2023/09/25 03:01:40;;;;;;;6.82;3.60;;;;;;;;;;5094009;28;20026;-67
2023/09/25 03:04:07;;;;;;;5.90;3.85;;;;;;;;;;5093826;28;20035;-67
2023/09/25 03:06:33;;;;;;;6.25;3.80;;;;;;;;;;5093901;28;20024;-67
2023/09/25 03:08:59;;;;;;;6.07;3.83;;;;;;;;;;5075698;28;20036;-67
2023/09/25 03:11:26;;;;;;;6.88;3.28;;;;;;;;;;5093770;28;20294;-67
2023/09/25 03:13:52;;;;;;;5.00;3.42;;;;;;;;;;5093933;28;20028;-67
2023/09/25 03:16:18;;;;;;;5.68;3.47;;;;;;;;;;5093670;28;20020;-67
2023/09/25 03:18:45;;;;;;;5.20;3.38;;;;;;;;;;5093468;28;20036;-67
2023/09/25 03:21:12;;;;;;;5.93;3.28;;;;;;;;;;5093812;28;20031;-67
2023/09/25 03:23:39;;;;;;;8.43;3.90;;;;;;;;;;5093142;28;20476;-67
2023/09/25 03:26:15;;;;;;;6.55;3.42;;;;;;;;;;5093394;28;20020;-67
2023/09/25 03:28:42;;;;;;;5.63;3.72;;;;;;;;;;5093233;28;20016;-67
2023/09/25 03:31:08;;;;;;;6.55;3.35;;;;;;;;;;5093548;28;20030;-67
2023/09/25 03:33:35;;;;;;;4.97;3.25;;;;;;;;;;5092551;28;20028;-67
2023/09/25 03:36:01;;;;;;;5.35;3.70;;;;;;;;;;5093108;28;20028;-67
2023/09/25 03:38:28;;;;;;;7.03;3.53;;;;;;;;;;5092939;28;20036;-68
2023/09/25 03:40:54;;;;;;;10.82;3.42;;;;;;;;;;5093491;28;20020;-67
2023/09/25 03:43:20;;;;;;;5.05;3.58;;;;;;;;;;5093032;28;20496;-67
2023/09/25 03:45:47;;;;;;;6.07;3.53;;;;;;;;;;5093426;28;20023;-67
2023/09/25 03:48:13;;;;;;;6.43;3.17;;;;;;;;;;5093036;28;20036;-67
2023/09/25 03:50:40;;;;;;;6.00;3.90;;;;;;;;;;5093090;28;20027;-67
2023/09/25 03:53:06;;;;;;;5.78;3.42;;;;;;;;;;5092391;28;20048;-67
2023/09/25 03:55:33;;;;;;;6.03;3.50;;;;;;;;;;5092900;28;20092;-67
2023/09/25 03:57:59;;;;;;;5.18;3.30;;;;;;;;;;5092808;28;20050;-67
2023/09/25 04:00:26;;;;;;;5.13;3.38;;;;;;;;;;5093104;28;20031;-67
2023/09/25 04:02:53;;;;;;;5.60;3.30;;;;;;;;;;5093216;28;20050;-67
2023/09/25 04:05:20;;;;;;;5.70;3.33;;;;;;;;;;5074991;28;20020;-66
2023/09/25 04:07:46;;;;;;;6.20;3.47;;;;;;;;;;5092412;28;20058;-67
2023/09/25 04:10:13;;;;;;;6.18;3.80;;;;;;;;;;5092864;28;20499;-67
2023/09/25 04:12:39;;;;;;;7.10;3.70;;;;;;;;;;5092681;28;20020;-67
2023/09/25 04:15:16;;;;;;;7.68;3.38;;;;;;;;;;5092986;28;20030;-67
2023/09/25 04:17:43;;;;;;;6.90;3.58;;;;;;;;;;5074723;28;20380;-67
2023/09/25 04:20:15;;;;;;;4.78;3.17;;;;;;;;;;5092531;28;20024;-67
2023/09/25 04:22:41;;;;;;;7.20;3.15;;;;;;;;;;5092274;28;20023;-66
2023/09/25 04:25:11;;;;;;;6.45;3.30;;;;;;;;;;5074708;28;20024;-67
2023/09/25 04:27:37;;;;;;;4.93;3.40;;;;;;;;;;5092556;28;20446;-67
2023/09/25 04:30:04;;;;;;;8.15;3.10;;;;;;;;;;5092595;28;20016;-67
2023/09/25 04:32:30;;;;;;;4.80;3.10;;;;;;;;;;5092607;28;20494;-67
2023/09/25 04:34:57;;;;;;;5.60;3.50;;;;;;;;;;5092314;28;20488;-67
2023/09/25 04:37:23;;;;;;;5.45;3.55;;;;;;;;;;5092293;28;20046;-67
2023/09/25 04:39:49;;;;;;;5.85;3.75;;;;;;;;;;5092528;28;20012;-67
2023/09/25 04:42:16;;;;;;;6.88;3.38;;;;;;;;;;5092689;28;20031;-67
2023/09/25 04:44:42;;;;;;;6.15;3.72;;;;;;;;;;5094786;28;20020;-68
2023/09/25 04:47:09;;;;;;;6.53;3.72;;;;;;;;;;5096760;28;20024;-67
2023/09/25 04:49:36;;;;;;;7.82;3.63;;;;;;;;;;5096408;28;20028;-67
2023/09/25 04:52:02;;;;;;;5.60;3.22;;;;;;;;;;5096270;28;20032;-67
2023/09/25 04:54:31;;;;;;;6.40;3.80;;;;;;;;;;5096142;28;20050;-67
2023/09/25 04:56:57;;;;;;;5.15;3.20;;;;;;;;;;5096280;28;20034;-67
2023/09/25 04:59:24;;;;;;;5.85;3.70;;;;;;;;;;5096216;28;20058;-67
2023/09/25 05:01:50;;;;;;;6.82;3.35;;;;;;;;;;5096480;28;20015;-67
2023/09/25 05:04:17;;;;;;;5.43;3.35;;;;;;;;;;5096186;28;20423;-67
2023/09/25 05:06:43;;;;;;;5.13;3.60;;;;;;;;;;5095805;28;20026;-67
2023/09/25 05:09:11;;;;;;;6.72;3.50;;;;;;;;;;5096061;28;20030;-67
2023/09/25 05:11:37;;;;;;;8.50;3.72;;;;;;;;;;5096278;28;20026;-67
2023/09/25 05:14:05;;;;;;;6.22;3.80;;;;;;;;;;5095812;28;20507;-67
2023/09/25 05:16:31;;;;;;;6.45;3.90;;;;;;;;;;5096019;28;20077;-67
2023/09/25 05:18:59;;;;;;;4.63;3.28;;;;;;;;;;5095429;28;20061;-67
2023/09/25 05:21:25;;;;;;;17.50;3.67;;;;;;;;;;5096048;28;20026;-69
2023/09/25 05:23:52;;;;;;;6.80;3.40;;;;;;;;;;5095733;28;20024;-68
2023/09/25 05:26:18;;;;;;;6.00;3.83;;;;;;;;;;5095811;28;20024;-69
2023/09/25 05:28:44;;;;;;;9.10;3.85;;;;;;;;;;5095846;28;20016;-68
2023/09/25 05:31:11;;;;;;;7.43;3.53;;;;;;;;;;5095613;28;20028;-68
2023/09/25 05:33:37;;;;;;;5.20;3.35;;;;;;;;;;5095218;28;20503;-68
2023/09/25 05:36:04;;;;;;;6.43;3.50;;;;;;;;;;5095667;28;20035;-69
2023/09/25 05:38:30;;;;;;;6.07;3.40;;;;;;;;;;5077709;28;20046;-68
2023/09/25 05:40:56;;;;;;;5.47;3.20;;;;;;;;;;5095755;28;20034;-69
2023/09/25 05:43:23;;;;;;;4.47;3.15;;;;;;;;;;5077151;28;20396;-68
2023/09/25 05:45:49;;;;;;;6.70;3.50;;;;;;;;;;5095415;28;20384;-68
2023/09/25 05:48:15;;;;;;;8.75;3.60;;;;;;;;;;5094924;28;20466;-68
2023/09/25 05:50:42;;;;;;;4.45;2.97;;;;;;;;;;5095342;28;20020;-69
2023/09/25 05:53:08;;;;;;;5.30;3.58;;;;;;;;;;5076961;28;20032;-68
2023/09/25 05:55:35;;;;;;;5.22;3.45;;;;;;;;;;5093953;28;20036;-68
2023/09/25 05:58:01;;;;;;;6.43;4.10;;;;;;;;;;5095074;28;20028;-69
2023/09/25 06:00:27;;;;;;;7.32;3.67;;;;;;;;;;5095325;28;20410;-68
2023/09/25 06:02:54;;;;;;;6.00;3.47;;;;;;;;;;5094703;28;20020;-68
2023/09/25 06:05:20;;;;;;;6.28;3.53;;;;;;;;;;5075891;28;20026;-69
2023/09/25 06:07:47;;;;;;;7.53;3.70;;;;;;;;;;5094540;28;20053;-68
2023/09/25 06:10:13;;;;;;;7.75;3.28;;;;;;;;;;5094703;28;20034;-68
2023/09/25 06:12:40;;;;;;;9.35;3.72;;;;;;;;;;5094498;28;20020;-68
2023/09/25 06:15:09;;;;;;;7.93;3.45;;;;;;;;;;5094341;28;20024;-68
2023/09/25 06:17:36;;;;;;;9.50;3.47;;;;;;;;;;5091122;28;20214;-68
2023/09/25 06:20:04;;;;;;;7.25;3.45;;;;;;;;;;5091352;28;20459;-68
2023/09/25 06:22:34;;;;;;;13.93;3.88;;;;;;;;;;5094068;28;20035;-68
2023/09/25 06:25:00;;;;;;;7.47;3.42;;;;;;;;;;5093994;28;20027;-68
2023/09/25 06:27:27;;;;;;;8.70;3.17;;;;;;;;;;5075182;28;20027;-67
2023/09/25 06:29:53;;;;;;;10.25;3.95;;;;;;;;;;5092921;28;20028;-67
2023/09/25 06:32:20;;;;;;;5.00;3.30;;;;;;;;;;5093208;28;20020;-67
2023/09/25 06:34:46;;;;;;;6.38;3.85;;;;;;;;;;5072794;28;20036;-68
2023/09/25 06:37:13;;;;;;;5.25;3.13;;;;;;;;;;5091008;28;20021;-67
2023/09/25 06:39:39;;;;;;;5.43;3.28;;;;;;;;;;5092503;28;20057;-69
2023/09/25 06:42:06;;;;;;;6.68;3.33;;;;;;;;;;5083469;28;20020;-69
2023/09/25 06:44:32;;;;;;;6.38;3.22;;;;;;;;;;5078396;28;20024;-68
2023/09/25 06:46:58;;;;;;;7.25;3.30;;;;;;;;;;5093307;28;20023;-68
2023/09/25 06:49:25;;;;;;;5.95;3.90;;;;;;;;;;5091322;28;20032;-67
2023/09/25 06:51:51;;;;;;;10.55;3.78;;;;;;;;;;5093702;28;20086;-69
2023/09/25 06:54:17;;;;;;;7.00;3.20;;;;;;;;;;5092824;28;20044;-69
2023/09/25 06:56:44;;;;;;;7.07;3.28;;;;;;;;;;5092703;28;20072;-68
2023/09/25 06:59:10;;;;;;;5.95;3.83;;;;;;;;;;5091272;28;20038;-68
2023/09/25 07:01:36;;;;;;;5.90;3.45;;;;;;;;;;5092547;28;20035;-68
2023/09/25 07:04:03;;;;;;;9.70;3.78;;;;;;;;;;5082237;28;20077;-68
2023/09/25 07:06:30;;;;;;;11.20;3.65;;;;;;;;;;5090282;28;20061;-68
2023/09/25 07:08:57;;;;;;;5.63;3.70;;;;;;;;;;5101799;28;20017;-68
2023/09/25 07:11:23;;;;;;;4.20;3.28;;;;;;;;;;5091189;28;20481;-69
2023/09/25 07:13:50;;;;;;;6.15;3.70;;;;;;;;;;5067654;28;20040;-68
2023/09/25 07:16:16;;;;;;;14.25;3.50;;;;;;;;;;5080039;28;20028;-68
2023/09/25 07:18:46;;;;;;;9.10;4.72;;;;;;;;;;5073665;28;20040;-68
2023/09/25 07:21:12;;;;;;;6.20;3.75;;;;;;;;;;5090327;28;20020;-69
2023/09/25 07:23:38;;;;;;;5.93;3.17;;;;;;;;;;5092646;28;20023;-68
2023/09/25 07:26:07;;;;;;;7.32;3.03;;;;;;;;;;5090647;28;20032;-68
2023/09/25 07:28:33;;;;;;;9.38;3.47;;;;;;;;;;5091046;28;20023;-68
2023/09/25 07:31:00;;;;;;;6.70;4.22;;;;;;;;;;5089794;28;20028;-69
2023/09/25 07:33:28;;;;;;;5.68;3.28;;;;;;;;;;5076541;28;20036;-68
2023/09/25 07:35:54;;;;;;;7.82;4.10;;;;;;;;;;5093140;28;20043;-67
2023/09/25 07:38:22;;;;;;;5.68;3.17;;;;;;;;;;5078337;28;20377;-67
2023/09/25 07:40:48;;;;;;;5.53;3.50;;;;;;;;;;5091507;28;20020;-68
2023/09/25 07:43:19;;;;;;;7.45;3.47;;;;;;;;;;5091978;28;20766;-69
2023/09/25 07:45:48;;;;;;;8.63;4.13;;;;;;;;;;5091454;28;20020;-67
2023/09/25 07:48:17;;;;;;;5.75;2.88;;;;;;;;;;5091755;28;20595;-67
2023/09/25 07:50:47;;;;;;;6.05;3.17;;;;;;;;;;5092582;28;20017;-68
2023/09/25 07:53:14;;;;;;;7.57;3.47;;;;;;;;;;5065781;28;20062;-69
2023/09/25 07:55:41;;;;;;;4.03;2.92;;;;;;;;;;5089711;28;20023;-69
2023/09/25 07:58:07;;;;;;;4.45;3.17;;;;;;;;;;5080361;28;20040;-69
2023/09/25 08:00:37;;;;;;;4.95;3.65;;;;;;;;;;5078969;28;20020;-70
2023/09/25 08:03:08;;;;;;;4.60;3.17;;;;;;;;;;5086982;28;20032;-67
2023/09/25 08:05:36;;;;;;;5.70;3.40;;;;;;;;;;5070910;28;20412;-67
2023/09/25 08:08:02;;;;;;;8.23;3.75;;;;;;;;;;5070664;28;20384;-66
2023/09/25 08:10:29;;;;;;;4.47;3.72;;;;;;;;;;5071524;28;20035;-66
2023/09/25 08:12:55;;;;;;;5.25;3.45;;;;;;;;;;5071859;28;20033;-67
2023/09/25 08:15:23;;;;;;;5.53;3.20;;;;;;;;;;5071663;28;20025;-67
2023/09/25 08:17:49;;;;;;;7.25;3.58;;;;;;;;;;5087532;28;20032;-67
2023/09/25 08:20:20;;;;;;;3.88;3.30;;;;;;;;;;5089873;28;20012;-67
2023/09/25 08:22:48;;;;;;;8.70;3.60;;;;;;;;;;5081456;28;20031;-67
2023/09/25 08:25:14;;;;;;;5.35;3.30;;;;;;;;;;5091427;28;20469;-67
2023/09/25 08:27:41;;;;;;;5.13;3.30;;;;;;;;;;5091239;28;20365;-70
2023/09/25 08:30:08;;;;;;;10.60;3.75;;;;;;;;;;5083907;28;20094;-67
2023/09/25 08:32:35;;;;;;;4.65;3.00;;;;;;;;;;5081795;28;20077;-67
2023/09/25 08:35:02;;;;;;;4.85;3.33;;;;;;;;;;5091561;28;20031;-67
2023/09/25 08:37:28;;;;;;;4.90;3.05;;;;;;;;;;5090210;28;20032;-67
2023/09/25 08:39:55;;;;;;;5.03;3.30;;;;;;;;;;5090251;28;20036;-67
2023/09/25 08:42:22;;;;;;;6.07;3.40;;;;;;;;;;5091424;28;20034;-67
2023/09/25 08:44:52;;;;;;;5.10;3.17;;;;;;;;;;5091447;28;20545;-67
2023/09/25 08:47:22;;;;;;;5.45;3.70;;;;;;;;;;5091371;28;20030;-67
2023/09/25 08:49:52;;;;;;;3.95;3.00;;;;;;;;;;5091440;28;20034;-67
2023/09/25 08:52:19;;;;;;;5.28;3.72;;;;;;;;;;5088921;28;20036;-67
2023/09/25 08:54:46;;;;;;;5.35;3.42;;;;;;;;;;5089903;28;20044;-67
2023/09/25 08:57:13;;;;;;;7.43;3.45;;;;;;;;;;5074534;28;20028;-67
2023/09/25 08:59:39;;;;;;;5.70;3.10;;;;;;;;;;5084825;28;20026;-67
2023/09/25 09:02:09;;;;;;;4.72;3.15;;;;;;;;;;5087941;28;20020;-68
2023/09/25 09:04:36;;;;;;;4.28;3.40;;;;;;;;;;5078525;28;20024;-67
2023/09/25 09:07:06;;;;;;;6.18;3.22;;;;;;;;;;5091170;28;20038;-67
2023/09/25 09:09:33;;;;;;;3.80;3.20;;;;;;;;;;5089079;28;20031;-67
2023/09/25 09:11:59;;;;;;;4.18;3.47;;;;;;;;;;5085567;28;20036;-68
2023/09/25 09:14:36;;;;;;;5.50;3.33;;;;;;;;;;5070760;28;20036;-68
2023/09/25 09:17:06;;;;;;;3.35;2.72;;;;;;;;;;5079997;28;20030;-67
2023/09/25 09:19:36;;;;;;;4.32;3.05;;;;;;;;;;5082300;28;20399;-67
2023/09/25 09:22:04;;;;;;;8.10;3.40;;;;;;;;;;5090573;28;20036;-67
2023/09/25 09:24:32;;;;;;;3.75;3.40;;;;;;;;;;5089708;28;20022;-67
2023/09/25 09:26:58;;;;;;;4.47;3.58;;;;;;;;;;5090565;28;20032;-68
2023/09/25 09:29:25;;;;;;;4.15;3.13;;;;;;;;;;5088575;28;20535;-67
2023/09/25 09:31:56;;;;;;;3.30;3.00;;;;;;;;;;5092765;28;20024;-67
2023/09/25 09:34:23;;;;;;;5.18;3.47;;;;;;;;;;5107993;28;20473;-67
2023/09/25 09:36:52;;;;;;;5.43;3.20;;;;;;;;;;5094487;28;20032;-68
2023/09/25 09:39:21;;;;;;;3.65;2.72;;;;;;;;;;5094096;28;20035;-68
2023/09/25 09:41:49;;;;;;;5.47;3.38;;;;;;;;;;5094073;28;20399;-68
2023/09/25 09:44:15;;;;;;;4.28;3.33;;;;;;;;;;5094159;28;20036;-67
2023/09/25 09:46:44;;;;;;;3.80;3.20;;;;;;;;;;5094256;28;20034;-67
2023/09/25 09:49:12;;;;;;;3.80;3.40;;;;;;;;;;5093908;28;20024;-67
2023/09/25 09:51:39;;;;;;;4.43;3.33;;;;;;;;;;5092666;28;20016;-67
2023/09/25 09:54:06;;;;;;;3.50;3.20;;;;;;;;;;5093630;28;20048;-67
2023/09/25 09:56:33;;;;;;;7.50;3.65;;;;;;;;;;5094230;28;20028;-67
2023/09/25 09:59:01;;;;;;;4.53;3.35;;;;;;;;;;5093735;28;20024;-67
2023/09/25 10:01:27;;;;;;;4.30;3.42;;;;;;;;;;5092105;28;20476;-67
2023/09/25 10:03:56;;;;;;;6.10;3.50;;;;;;;;;;5082529;28;20506;-67
2023/09/25 10:06:28;;;;;;;5.55;3.20;;;;;;;;;;5075823;28;20017;-68
2023/09/25 10:09:02;;;;;;;4.28;3.40;;;;;;;;;;5075021;28;20028;-67
2023/09/25 10:11:30;;;;;;;4.70;3.30;;;;;;;;;;5093491;28;20023;-67
2023/09/25 10:14:00;;;;;;;7.60;3.60;;;;;;;;;;5075623;28;20036;-67
2023/09/25 10:16:29;;;;;;;5.85;3.50;;;;;;;;;;5093373;28;20017;-68
2023/09/25 10:18:56;;;;;;;7.18;3.70;;;;;;;;;;5093228;28;20043;-67
2023/09/25 10:21:22;;;;;;;6.97;3.10;;;;;;;;;;5093478;28;20032;-67
2023/09/25 10:23:50;;;;;;;6.00;3.60;;;;;;;;;;5091750;28;20037;-67
2023/09/25 10:26:20;;;;;;;4.68;3.50;;;;;;;;;;5092774;28;20028;-67
2023/09/25 10:28:47;;;;;;;;;;;;;;;;;;5076214;28;20016;-67
2023/09/25 10:31:20;;;;;;;6.90;3.60;;;;;;;;;;5093050;28;19926;-68
2023/09/25 10:33:54;;;;;;;4.82;3.60;;;;;;;;;;5093418;28;20028;-68
2023/09/25 10:36:21;;;;;;;5.53;3.35;;;;;;;;;;5091582;28;20027;-67
2023/09/25 10:38:53;;;;;;;4.00;3.00;;;;;;;;;;5092647;28;20032;-67
2023/09/25 10:41:22;;;;;;;5.05;3.60;;;;;;;;;;5092779;28;20017;-67
2023/09/25 10:43:49;;;;;;;6.30;3.67;;;;;;;;;;5093180;28;20032;-67
2023/09/25 10:46:15;;;;;;;8.05;3.83;;;;;;;;;;5092767;28;20012;-67
2023/09/25 10:48:41;;;;;;;5.00;3.35;;;;;;;;;;5093340;28;20024;-68
2023/09/25 10:51:08;;;;;;;5.50;3.42;;;;;;;;;;5092735;28;20392;-68
2023/09/25 10:53:34;;;;;;;4.70;3.53;;;;;;;;;;5092306;28;20040;-67
2023/09/25 10:56:01;;;;;;;3.55;3.15;;;;;;;;;;5092749;28;20024;-68
2023/09/25 10:58:27;;;;;;;3.90;3.50;;;;;;;;;;5092967;28;20034;-67
2023/09/25 11:00:53;;;;;;;4.57;3.83;;;;;;;;;;5074512;28;20032;-67
2023/09/25 11:03:20;;;;;;;5.13;3.67;;;;;;;;;;5092404;28;20020;-67
2023/09/25 11:05:46;;;;;;;3.75;3.22;;;;;;;;;;5092978;28;20027;-68
2023/09/25 11:08:15;;;;;;;3.80;3.47;;;;;;;;;;5092302;28;20028;-67
2023/09/25 11:10:42;;;;;;;7.30;3.28;;;;;;;;;;5092620;28;20237;-67
2023/09/25 11:13:09;;;;;;;5.32;3.40;;;;;;;;;;5092719;28;20032;-68
2023/09/25 11:15:37;;;;;;;5.78;3.50;;;;;;;;;;5092613;28;20020;-68
2023/09/25 11:18:04;;;;;;;5.38;3.47;;;;;;;;;;5092419;28;20031;-67
2023/09/25 11:20:33;;;;;;;4.18;3.58;;;;;;;;;;5074578;28;20024;-67
2023/09/25 11:23:09;;;;;;;4.50;3.28;;;;;;;;;;5092427;28;20028;-68
2023/09/25 11:25:54;;;;;;;3.85;3.42;;;;;;;;;;5087964;28;20472;-68
2023/09/25 11:28:21;;;;;;;3.95;3.55;;;;;;;;;;5093089;28;20036;-68
2023/09/25 11:30:48;;;;;;;3.55;3.08;;;;;;;;;;5098301;28;20411;-68
2023/09/25 11:33:21;;;;;;;4.47;3.30;;;;;;;;;;5112545;28;20035;-68
2023/09/25 11:35:52;;;;;;;8.07;3.50;;;;;;;;;;5112394;28;20016;-68
2023/09/25 11:38:24;;;;;;;4.45;3.20;;;;;;;;;;5101489;28;20438;-67
2023/09/25 11:40:50;;;;;;;3.72;3.08;;;;;;;;;;5085963;28;20061;-68
2023/09/25 11:43:17;;;;;;;6.22;2.90;;;;;;;;;;5091136;28;20039;-67
2023/09/25 11:45:44;;;;;;;3.78;3.38;;;;;;;;;;5089254;28;20020;-68
2023/09/25 11:48:11;;;;;;;5.72;3.08;;;;;;;;;;5081119;28;20080;-68
2023/09/25 11:50:38;;;;;;;4.80;3.25;;;;;;;;;;5091526;28;20024;-69
2023/09/25 11:53:04;;;;;;;5.85;3.28;;;;;;;;;;5091397;28;20055;-67
2023/09/25 11:55:30;;;;;;;7.07;3.00;;;;;;;;;;5090344;28;20396;-68
2023/09/25 11:57:58;;;;;;;3.70;3.30;;;;;;;;;;5084146;28;20029;-68
2023/09/25 12:00:27;;;;;;;4.65;3.30;;;;;;;;;;5074062;28;20036;-68
2023/09/25 12:02:54;;;;;;;4.18;3.42;;;;;;;;;;5080741;28;20024;-69
2023/09/25 12:05:20;;;;;;;5.65;3.05;;;;;;;;;;5089514;28;20040;-69
2023/09/25 12:07:47;;;;;;;4.78;3.10;;;;;;;;;;5083089;28;20454;-68
2023/09/25 12:10:16;;;;;;;4.60;3.40;;;;;;;;;;5084126;28;20023;-69
2023/09/25 12:12:44;;;;;;;3.42;2.88;;;;;;;;;;5083822;28;20028;-68
2023/09/25 12:15:12;;;;;;;5.07;2.97;;;;;;;;;;5090246;28;20501;-69
2023/09/25 12:17:39;;;;;;;4.03;3.15;;;;;;;;;;5090534;28;20024;-68
2023/09/25 12:20:11;;;;;;;4.30;3.00;;;;;;;;;;5089484;28;20035;-69
2023/09/25 12:22:40;;;;;;;5.75;2.67;;;;;;;;;;5090504;28;20031;-68
2023/09/25 12:25:11;;;;;;;4.03;3.00;;;;;;;;;;5091301;28;20028;-68
2023/09/25 12:27:42;;;;;;;6.28;2.97;;;;;;;;;;5090290;28;20038;-69
2023/09/25 12:30:10;;;;;;;5.72;2.97;;;;;;;;;;5087853;28;20039;-69
2023/09/25 12:32:37;;;;;;;3.17;2.88;;;;;;;;;;5090821;28;20023;-70
2023/09/25 12:35:07;;;;;;;4.53;2.80;;;;;;;;;;5089886;28;20032;-69
2023/09/25 12:37:33;;;;;;;3.97;2.90;;;;;;;;;;5088406;28;20028;-69
2023/09/25 12:40:00;;;;;;;3.35;2.70;;;;;;;;;;5090137;28;20034;-69
2023/09/25 12:42:28;;;;;;;2.90;2.40;;;;;;;;;;5076997;28;20035;-69
2023/09/25 12:44:55;;;;;;;4.72;2.63;;;;;;;;;;5088226;28;20020;-69
2023/09/25 12:47:21;;;;;;;3.70;2.40;;;;;;;;;;5075422;28;20024;-69
2023/09/25 12:49:48;;;;;;;5.25;2.80;;;;;;;;;;5089311;28;20027;-69
2023/09/25 12:52:15;;;;;;;3.38;3.08;;;;;;;;;;5090007;28;20028;-69
2023/09/25 12:54:42;;;;;;;4.68;3.05;;;;;;;;;;5089608;28;20416;-69
2023/09/25 12:57:08;;;;;;;2.80;2.50;;;;;;;;;;5087777;28;20501;-69
2023/09/25 12:59:34;;;;;;;4.55;3.00;;;;;;;;;;5089440;28;20024;-69
2023/09/25 13:02:01;;;;;;;4.70;3.00;;;;;;;;;;5089500;28;20370;-69
2023/09/25 13:04:28;;;;;;;4.15;2.70;;;;;;;;;;5089624;28;20032;-69
2023/09/25 13:06:54;;;;;;;3.00;2.70;;;;;;;;;;5092613;28;20036;-69
2023/09/25 13:09:22;;;;;;;4.25;2.58;;;;;;;;;;5079176;28;20031;-68
2023/09/25 13:11:48;;;;;;;5.78;2.80;;;;;;;;;;5091390;28;20507;-67
2023/09/25 13:14:15;;;;;;;3.63;2.42;;;;;;;;;;5087883;28;20024;-70
2023/09/25 13:16:43;;;;;;;3.30;2.70;;;;;;;;;;5090644;28;20387;-67
2023/09/25 13:19:09;;;;;;;3.30;2.58;;;;;;;;;;5093594;28;20402;-68
2023/09/25 13:21:36;;;;;;;2.63;2.42;;;;;;;;;;5091262;28;20518;-69
2023/09/25 13:24:02;;;;;;;2.33;2.13;;;;;;;;;;5092992;28;20388;-69
2023/09/25 13:26:29;;;;;;;2.80;2.58;;;;;;;;;;5093314;28;20024;-69
2023/09/25 13:28:56;;;;;;;2.83;2.60;;;;;;;;;;5093935;28;20040;-69
2023/09/25 13:31:23;;;;;;;4.35;2.80;;;;;;;;;;5076984;28;20024;-69
2023/09/25 13:33:49;;;;;;;2.45;2.25;;;;;;;;;;5068034;28;20451;-69
2023/09/25 13:36:16;;;;;;;3.65;2.47;;;;;;;;;;5083983;28;20042;-69
2023/09/25 13:38:42;;;;;;;2.53;2.28;;;;;;;;;;5093279;28;20027;-69
2023/09/25 13:41:10;;;;;;;4.07;2.17;;;;;;;;;;5091048;28;20012;-68
2023/09/25 13:43:37;;;;;;;3.15;2.40;;;;;;;;;;5085069;28;20024;-69
2023/09/25 13:46:07;;;;;;;2.95;2.20;;;;;;;;;;5086680;28;20024;-69
2023/09/25 13:48:33;;;;;;;;;;;;;;;;;;5066824;28;20036;-69
2023/09/25 13:51:00;;;;;;;2.63;2.10;;;;;;;;;;5089461;28;19908;-69
2023/09/25 13:53:26;;;;;;;6.60;2.47;;;;;;;;;;5093144;28;20040;-69
2023/09/25 13:55:52;;;;;;;3.88;2.65;;;;;;;;;;5092624;28;20030;-69
2023/09/25 13:58:19;;;;;;;2.67;2.00;;;;;;;;;;5068430;28;20062;-69
2023/09/25 14:00:45;;;;;;;3.30;2.38;;;;;;;;;;5083418;28;20024;-69
2023/09/25 14:03:11;;;;;;;2.95;2.30;;;;;;;;;;5078726;28;20028;-69
2023/09/25 14:05:39;;;;;;;3.47;2.20;;;;;;;;;;5076291;28;20556;-69
2023/09/25 14:08:06;;;;;;;2.58;2.38;;;;;;;;;;5089445;28;20036;-68
2023/09/25 14:10:37;;;;;;;2.45;2.25;;;;;;;;;;5089763;28;20507;-69
2023/09/25 14:13:04;;;;;;;3.08;2.05;;;;;;;;;;5093075;28;20046;-68
2023/09/25 14:15:30;;;;;;;2.67;2.38;;;;;;;;;;5089866;28;20016;-70
2023/09/25 14:17:56;;;;;;;3.05;2.28;;;;;;;;;;5073967;28;20020;-68
2023/09/25 14:20:22;;;;;;;2.45;2.25;;;;;;;;;;5093166;28;20030;-69
2023/09/25 14:22:49;;;;;;;3.63;2.20;;;;;;;;;;5090696;28;20396;-69
2023/09/25 14:25:16;;;;;;;2.08;1.90;;;;;;;;;;5093478;28;20020;-69
2023/09/25 14:27:42;;;;;;;3.85;2.10;;;;;;;;;;5091639;28;20024;-68
2023/09/25 14:30:11;;;;;;;2.35;2.10;;;;;;;;;;5091596;28;20415;-68
2023/09/25 14:32:37;;;;;;;2.20;2.00;;;;;;;;;;5076296;28;20024;-69
2023/09/25 14:35:04;;;;;;;2.55;2.00;;;;;;;;;;5072902;28;20028;-68
2023/09/25 14:37:32;;;;;;;4.97;2.15;;;;;;;;;;5061516;28;20032;-68
2023/09/25 14:39:59;;;;;;;2.87;2.10;;;;;;;;;;5074046;28;20031;-67
2023/09/25 14:42:29;;;;;;;2.47;2.28;;;;;;;;;;5092524;28;20016;-69